createdAt,value
2018-02-07T00:00:25.597Z,13.50
2018-02-07T00:02:54.673Z,13.55
2018-02-07T00:05:24.065Z,12.02
2018-02-07T00:07:52.383Z,13.38
2018-02-07T00:10:20.672Z,11.82
2018-02-07T00:12:48.996Z,13.00
2018-02-07T00:15:17.288Z,13.55
2018-02-07T00:17:45.672Z,15.40
2018-02-07T00:20:14.760Z,14.27
2018-02-07T00:22:43.088Z,13.65
2018-02-07T00:25:12.168Z,15.32
2018-02-07T00:27:41.380Z,12.88
2018-02-07T00:30:09.666Z,11.50
2018-02-07T00:32:39.041Z,13.38
2018-02-07T00:35:07.408Z,14.15
2018-02-07T00:37:35.919Z,13.45
2018-02-07T00:40:04.268Z,12.80
2018-02-07T00:42:33.705Z,14.27
2018-02-07T00:45:01.997Z,11.88
2018-02-07T00:47:30.317Z,13.00
2018-02-07T00:49:58.667Z,14.68
2018-02-07T00:52:26.977Z,13.77
2018-02-07T00:54:55.301Z,13.38
2018-02-07T00:57:23.599Z,12.02
2018-02-07T00:59:51.928Z,14.60
2018-02-07T01:02:20.983Z,13.65
2018-02-07T01:04:49.305Z,13.77
2018-02-07T01:07:18.367Z,15.43
2018-02-07T01:09:46.684Z,12.50
2018-02-07T01:12:15.014Z,16.20
2018-02-07T01:14:43.329Z,14.48
2018-02-07T01:17:11.659Z,14.23
2018-02-07T01:19:40.029Z,14.10
2018-02-07T01:22:08.348Z,16.65
2018-02-07T01:24:36.644Z,15.05
2018-02-07T01:27:04.964Z,12.88
2018-02-07T01:29:33.253Z,14.80
2018-02-07T01:32:01.598Z,16.62
2018-02-07T01:34:29.953Z,13.70
2018-02-07T01:36:58.312Z,14.82
2018-02-07T01:39:26.613Z,14.85
2018-02-07T01:41:54.915Z,15.73
2018-02-07T01:44:23.235Z,12.43
2018-02-07T01:46:51.525Z,13.57
2018-02-07T01:49:19.843Z,13.32
2018-02-07T01:51:48.167Z,15.60
2018-02-07T01:54:16.508Z,14.02
2018-02-07T01:56:44.889Z,15.55
2018-02-07T01:59:13.217Z,14.35
2018-02-07T02:01:42.317Z,14.40
2018-02-07T02:04:11.391Z,12.35
2018-02-07T02:06:39.716Z,17.73
2018-02-07T02:09:08.796Z,13.65
2018-02-07T02:11:37.276Z,16.37
2018-02-07T02:14:05.602Z,15.57
2018-02-07T02:16:33.923Z,15.15
2018-02-07T02:19:02.253Z,13.00
2018-02-07T02:21:30.589Z,14.68
2018-02-07T02:23:59.745Z,18.60
2018-02-07T02:26:28.040Z,16.08
2018-02-07T02:28:56.360Z,13.82
2018-02-07T02:31:24.663Z,15.43
2018-02-07T02:33:53.773Z,15.55
2018-02-07T02:36:41.380Z,17.30
2018-02-07T02:39:09.888Z,15.40
2018-02-07T02:41:38.179Z,13.48
2018-02-07T02:44:06.479Z,15.63
2018-02-07T02:46:34.799Z,15.82
2018-02-07T02:49:03.097Z,15.18
2018-02-07T02:51:31.416Z,18.20
2018-02-07T02:53:59.704Z,13.73
2018-02-07T02:56:28.024Z,15.30
2018-02-07T02:58:57.114Z,18.00
2018-02-07T03:01:25.708Z,15.65
2018-02-07T03:03:53.992Z,14.90
2018-02-07T03:06:22.283Z,17.80
2018-02-07T03:08:50.603Z,15.30
2018-02-07T03:11:18.891Z,17.65
2018-02-07T03:13:48.275Z,15.70
2018-02-07T03:16:16.561Z,15.27
2018-02-07T03:18:44.860Z,15.75
2018-02-07T03:21:13.183Z,15.30
2018-02-07T03:23:42.244Z,16.90
2018-02-07T03:26:10.595Z,17.10
2018-02-07T03:28:39.672Z,15.73
2018-02-07T03:31:07.992Z,16.25
2018-02-07T03:33:37.053Z,15.13
2018-02-07T03:36:05.387Z,15.43
2018-02-07T03:38:34.443Z,14.45
2018-02-07T03:41:02.872Z,16.58
2018-02-07T03:43:31.159Z,14.63
2018-02-07T03:45:59.477Z,15.10
2018-02-07T03:48:27.804Z,17.25
2018-02-07T03:50:56.123Z,18.58
2018-02-07T03:53:24.461Z,16.42
2018-02-07T03:55:52.792Z,17.73
2018-02-07T03:58:21.136Z,13.60
2018-02-07T04:00:49.424Z,16.30
2018-02-07T04:03:17.957Z,16.83
2018-02-07T04:05:46.298Z,15.75
2018-02-07T04:08:15.357Z,16.17
2018-02-07T04:10:43.701Z,16.08
2018-02-07T04:13:11.997Z,17.55
2018-02-07T04:15:40.464Z,16.92
2018-02-07T04:18:09.530Z,16.48
2018-02-07T04:20:37.824Z,18.15
2018-02-07T04:23:06.160Z,17.30
2018-02-07T04:25:35.237Z,17.70
2018-02-07T04:28:03.658Z,18.48
2018-02-07T04:30:32.723Z,17.15
2018-02-07T04:33:01.104Z,14.57
2018-02-07T04:35:29.403Z,16.70
2018-02-07T04:37:57.703Z,17.17
2018-02-07T04:40:26.032Z,18.08
2018-02-07T04:42:54.414Z,17.10
2018-02-07T04:45:22.838Z,17.17
2018-02-07T04:47:51.154Z,18.40
2018-02-07T04:50:19.448Z,19.27
2018-02-07T04:52:47.776Z,17.12
2018-02-07T04:55:16.836Z,18.02
2018-02-07T04:57:45.164Z,18.20
2018-02-07T05:00:14.216Z,17.65
2018-02-07T05:02:42.505Z,20.80
2018-02-07T05:05:10.902Z,18.35
2018-02-07T05:07:39.207Z,19.30
2018-02-07T05:10:07.804Z,16.55
2018-02-07T05:12:36.093Z,18.87
2018-02-07T05:15:04.385Z,16.67
2018-02-07T05:17:32.976Z,19.25
2018-02-07T05:20:01.264Z,18.20
2018-02-07T05:22:29.561Z,18.40
2018-02-07T05:24:57.879Z,20.12
2018-02-07T05:27:26.968Z,18.83
2018-02-07T05:29:56.103Z,18.17
2018-02-07T05:32:25.161Z,17.50
2018-02-07T05:34:53.856Z,18.67
2018-02-07T05:37:22.173Z,19.25
2018-02-07T05:39:50.491Z,16.77
2018-02-07T05:42:19.573Z,18.08
2018-02-07T05:44:47.877Z,20.10
2018-02-07T05:47:16.979Z,19.98
2018-02-07T05:49:45.281Z,23.30
2018-02-07T05:52:14.341Z,19.92
2018-02-07T05:54:42.663Z,27.33
2018-02-07T05:57:10.972Z,22.40
2018-02-07T05:59:40.060Z,20.25
2018-02-07T06:02:08.456Z,17.90
2018-02-07T06:04:36.755Z,18.02
2018-02-07T06:07:05.816Z,20.15
2018-02-07T06:09:34.300Z,20.00
2018-02-07T06:12:02.596Z,18.60
2018-02-07T06:14:30.961Z,19.02
2018-02-07T06:16:59.308Z,18.17
2018-02-07T06:19:27.599Z,19.65
2018-02-07T06:21:55.961Z,19.70
2018-02-07T06:24:24.319Z,19.60
2018-02-07T06:26:52.625Z,17.62
2018-02-07T06:29:20.996Z,20.23
2018-02-07T06:31:49.319Z,20.48
2018-02-07T06:34:17.660Z,18.10
2018-02-07T06:36:46.737Z,21.30
2018-02-07T06:39:15.220Z,17.75
2018-02-07T06:41:43.512Z,17.77
2018-02-07T06:44:13.310Z,19.85
2018-02-07T06:46:41.771Z,20.23
2018-02-07T06:49:10.840Z,21.65
2018-02-07T06:51:39.141Z,16.27
2018-02-07T06:54:07.515Z,19.42
2018-02-07T06:56:35.842Z,18.60
2018-02-07T06:59:04.191Z,20.58
2018-02-07T07:01:32.494Z,23.67
2018-02-07T07:04:01.167Z,20.37
2018-02-07T07:06:29.455Z,19.98
2018-02-07T07:08:57.972Z,16.95
2018-02-07T07:11:26.325Z,18.50
2018-02-07T07:13:55.391Z,18.17
2018-02-07T07:16:23.705Z,19.62
2018-02-07T07:18:52.796Z,19.02
2018-02-07T07:21:21.164Z,18.87
2018-02-07T07:23:49.497Z,23.12
2018-02-07T07:26:18.611Z,17.33
2018-02-07T07:28:46.938Z,20.40
2018-02-07T07:31:15.286Z,21.55
2018-02-07T07:33:44.398Z,17.58
2018-02-07T07:36:13.460Z,20.40
2018-02-07T07:38:41.805Z,18.00
2018-02-07T07:41:10.163Z,19.17
2018-02-07T07:43:38.465Z,20.08
2018-02-07T07:46:07.681Z,17.80
2018-02-07T07:48:36.750Z,17.02
2018-02-07T07:51:05.052Z,19.73
2018-02-07T07:53:33.388Z,20.02
2018-02-07T07:56:01.680Z,19.10
2018-02-07T07:58:29.971Z,20.25
2018-02-07T08:00:58.304Z,20.05
2018-02-07T08:03:26.594Z,18.85
2018-02-07T08:05:54.934Z,19.40
2018-02-07T08:08:23.234Z,20.00
2018-02-07T08:10:51.573Z,19.27
2018-02-07T08:13:19.868Z,18.50
2018-02-07T08:15:48.445Z,17.80
2018-02-07T08:18:16.737Z,20.00
2018-02-07T08:20:45.062Z,18.47
2018-02-07T08:23:14.145Z,18.80
2018-02-07T08:25:42.487Z,19.43
2018-02-07T08:28:10.776Z,18.43
2018-02-07T08:30:39.063Z,18.93
2018-02-07T08:33:07.412Z,19.40
2018-02-07T08:35:35.770Z,18.07
2018-02-07T08:38:04.056Z,19.77
2018-02-07T08:40:32.404Z,18.50
2018-02-07T08:43:01.533Z,20.57
2018-02-07T08:45:29.836Z,19.47
2018-02-07T08:47:58.169Z,21.80
2018-02-07T08:50:26.466Z,18.40
2018-02-07T08:52:54.792Z,20.00
2018-02-07T08:55:23.084Z,19.83
2018-02-07T08:57:51.384Z,19.47
2018-02-07T09:00:19.824Z,18.00
2018-02-07T09:02:48.924Z,23.00
2018-02-07T09:05:17.219Z,20.90
2018-02-07T09:07:45.536Z,19.57
2018-02-07T09:10:13.833Z,20.73
2018-02-07T09:12:42.131Z,19.83
2018-02-07T09:15:10.474Z,19.83
2018-02-07T09:17:38.804Z,20.83
2018-02-07T09:20:07.146Z,19.67
2018-02-07T09:22:35.451Z,21.03
2018-02-07T09:25:03.769Z,19.47
2018-02-07T09:27:32.080Z,19.30
2018-02-07T09:30:00.388Z,20.20
2018-02-07T09:32:28.741Z,19.47
2018-02-07T09:34:57.063Z,19.40
2018-02-07T09:37:25.670Z,18.47
2018-02-07T09:39:53.960Z,18.60
2018-02-07T09:42:22.248Z,19.30
2018-02-07T09:44:50.676Z,19.07
2018-02-07T09:47:19.767Z,21.67
2018-02-07T09:49:48.091Z,19.03
2018-02-07T09:52:16.728Z,18.27
2018-02-07T09:54:45.025Z,19.13
2018-02-07T09:57:13.314Z,18.87
2018-02-07T09:59:41.649Z,19.27
2018-02-07T10:02:10.737Z,20.03
2018-02-07T10:04:39.088Z,19.87
2018-02-07T10:07:07.371Z,24.47
2018-02-07T10:09:35.652Z,20.97
2018-02-07T10:12:04.008Z,20.77
2018-02-07T10:14:33.087Z,21.17
2018-02-07T10:17:01.385Z,23.10
2018-02-07T10:19:29.722Z,18.67
2018-02-07T10:21:58.019Z,19.70
2018-02-07T10:24:26.428Z,21.50
2018-02-07T10:26:55.467Z,22.20
2018-02-07T10:29:23.789Z,20.50
2018-02-07T10:31:52.861Z,19.90
2018-02-07T10:34:21.143Z,20.43
2018-02-07T10:36:49.465Z,20.60
2018-02-07T10:39:18.540Z,22.83
2018-02-07T10:41:46.831Z,21.87
2018-02-07T10:44:15.153Z,20.80
2018-02-07T10:46:44.241Z,20.40
2018-02-07T10:49:12.564Z,22.53
2018-02-07T10:51:40.879Z,21.17
2018-02-07T10:54:09.167Z,21.93
2018-02-07T10:56:37.767Z,22.13
2018-02-07T10:59:06.060Z,21.47
2018-02-07T11:01:34.355Z,21.43
2018-02-07T11:04:02.689Z,21.33
2018-02-07T11:06:31.764Z,22.90
2018-02-07T11:09:00.093Z,21.77
2018-02-07T11:11:29.154Z,21.67
2018-02-07T11:13:57.485Z,21.13
2018-02-07T11:16:26.615Z,23.20
2018-02-07T11:18:54.913Z,21.30
2018-02-07T11:21:23.544Z,21.07
2018-02-07T11:23:51.845Z,21.67
2018-02-07T11:26:20.183Z,21.73
2018-02-07T11:28:48.556Z,21.20
2018-02-07T11:31:17.709Z,21.97
2018-02-07T11:33:46.105Z,21.53
2018-02-07T11:36:14.455Z,22.90
2018-02-07T11:38:42.781Z,22.40
2018-02-07T11:41:11.119Z,21.00
2018-02-07T11:43:40.185Z,23.03
2018-02-07T11:46:08.477Z,20.33
2018-02-07T11:48:36.787Z,22.30
2018-02-07T11:51:05.150Z,22.37
2018-02-07T11:53:33.468Z,20.00
2018-02-07T11:56:01.760Z,21.10
2018-02-07T11:58:30.092Z,22.10
2018-02-07T12:00:58.402Z,19.03
2018-02-07T12:03:26.723Z,21.37
2018-02-07T12:05:55.024Z,19.63
2018-02-07T12:08:23.385Z,21.50
2018-02-07T12:10:51.683Z,20.30
2018-02-07T12:13:20.368Z,21.63
2018-02-07T12:15:48.692Z,20.63
2018-02-07T12:18:16.981Z,22.73
2018-02-07T12:20:45.300Z,22.57
2018-02-07T12:23:13.626Z,22.00
2018-02-07T12:25:41.943Z,19.37
2018-02-07T12:28:10.305Z,19.27
2018-02-07T12:30:38.660Z,20.17
2018-02-07T12:33:06.996Z,20.83
2018-02-07T12:35:35.280Z,19.97
2018-02-07T12:38:03.595Z,20.77
2018-02-07T12:40:31.909Z,21.87
2018-02-07T12:43:01.051Z,20.47
2018-02-07T12:45:29.369Z,19.87
2018-02-07T12:47:57.673Z,20.50
2018-02-07T12:50:26.068Z,21.33
2018-02-07T12:52:54.361Z,22.03
2018-02-07T12:55:22.686Z,21.13
2018-02-07T12:57:51.751Z,21.40
2018-02-07T13:00:20.045Z,21.10
2018-02-07T13:02:48.356Z,21.40
2018-02-07T13:05:17.436Z,21.43
2018-02-07T13:07:45.791Z,21.70
2018-02-07T13:10:14.101Z,22.93
2018-02-07T13:12:42.445Z,21.93
2018-02-07T13:15:11.660Z,23.50
2018-02-07T13:17:39.961Z,22.87
2018-02-07T13:20:08.283Z,22.80
2018-02-07T13:22:36.605Z,22.67
2018-02-07T13:25:04.931Z,20.83
2018-02-07T13:27:33.216Z,23.43
2018-02-07T13:30:01.557Z,21.40
2018-02-07T13:32:29.870Z,22.53
2018-02-07T13:34:58.156Z,22.03
2018-02-07T13:37:26.476Z,22.10
2018-02-07T13:39:54.821Z,25.70
2018-02-07T13:42:23.148Z,20.90
2018-02-07T13:44:52.202Z,22.70
2018-02-07T13:47:20.879Z,22.57
2018-02-07T13:49:49.909Z,21.73
2018-02-07T13:52:18.216Z,22.60
2018-02-07T13:54:46.540Z,21.17
2018-02-07T13:57:14.848Z,21.73
2018-02-07T13:59:43.180Z,21.50
2018-02-07T14:02:11.545Z,20.27
2018-02-07T14:04:39.863Z,24.03
2018-02-07T14:07:08.170Z,24.20
2018-02-07T14:09:36.487Z,24.07
2018-02-07T14:12:04.807Z,22.43
2018-02-07T14:14:33.135Z,20.80
2018-02-07T14:17:01.486Z,21.67
2018-02-07T14:19:29.824Z,21.30
2018-02-07T14:21:58.108Z,22.00
2018-02-07T14:24:27.208Z,23.07
2018-02-07T14:26:55.502Z,22.23
2018-02-07T14:29:24.176Z,21.17
2018-02-07T14:31:52.480Z,21.40
2018-02-07T14:34:20.769Z,18.60
2018-02-07T14:36:49.093Z,19.10
2018-02-07T14:39:17.376Z,22.00
2018-02-07T14:41:46.459Z,20.00
2018-02-07T14:44:14.752Z,21.70
2018-02-07T14:46:43.085Z,22.40
2018-02-07T14:49:11.459Z,22.47
2018-02-07T14:51:40.523Z,21.00
2018-02-07T14:54:08.875Z,22.20
2018-02-07T14:56:37.941Z,21.10
2018-02-07T14:59:06.259Z,18.83
2018-02-07T15:01:34.557Z,20.17
2018-02-07T15:04:02.892Z,20.97
2018-02-07T15:06:31.222Z,22.40
2018-02-07T15:09:00.320Z,20.63
2018-02-07T15:11:29.419Z,20.43
2018-02-07T15:13:57.708Z,20.50
2018-02-07T15:16:26.045Z,19.87
2018-02-07T15:18:54.340Z,20.10
2018-02-07T15:21:22.754Z,18.80
2018-02-07T15:23:51.046Z,20.20
2018-02-07T15:26:19.336Z,21.50
2018-02-07T15:28:47.647Z,21.10
2018-02-07T15:31:15.955Z,20.70
2018-02-07T15:33:44.317Z,17.90
2018-02-07T15:36:12.628Z,20.90
2018-02-07T15:38:41.726Z,19.10
2018-02-07T15:41:10.009Z,20.57
2018-02-07T15:43:38.334Z,21.10
2018-02-07T15:46:06.647Z,21.43
2018-02-07T15:48:34.980Z,19.60
2018-02-07T15:51:03.279Z,21.13
2018-02-07T15:53:31.601Z,20.17
2018-02-07T15:55:59.937Z,19.43
2018-02-07T15:58:28.261Z,18.90
2018-02-07T16:00:56.589Z,20.20
2018-02-07T16:03:24.925Z,21.50
2018-02-07T16:05:53.213Z,19.33
2018-02-07T16:08:21.554Z,20.70
2018-02-07T16:10:49.872Z,20.13
2018-02-07T16:13:18.189Z,16.40
2018-02-07T16:15:46.517Z,17.90
2018-02-07T16:18:14.805Z,18.70
2018-02-07T16:20:43.141Z,18.37
2018-02-07T16:23:11.470Z,19.33
2018-02-07T16:25:40.536Z,18.73
2018-02-07T16:28:08.931Z,19.10
2018-02-07T16:30:37.270Z,21.57
2018-02-07T16:33:05.593Z,19.13
2018-02-07T16:35:33.939Z,19.77
2018-02-07T16:38:02.989Z,17.67
2018-02-07T16:40:31.306Z,19.63
2018-02-07T16:42:59.624Z,19.03
2018-02-07T16:45:28.733Z,19.50
2018-02-07T16:47:58.533Z,18.50
2018-02-07T16:50:26.846Z,17.90
2018-02-07T16:52:56.050Z,19.23
2018-02-07T16:55:24.376Z,19.73
2018-02-07T16:57:52.661Z,18.57
2018-02-07T17:00:21.037Z,20.90
2018-02-07T17:02:49.313Z,20.10
2018-02-07T17:05:18.394Z,18.70
2018-02-07T17:07:46.701Z,21.93
2018-02-07T17:10:15.023Z,19.57
2018-02-07T17:12:43.309Z,18.20
2018-02-07T17:15:11.674Z,16.43
2018-02-07T17:17:39.960Z,18.40
2018-02-07T17:20:08.254Z,20.07
2018-02-07T17:22:36.574Z,20.27
2018-02-07T17:25:04.895Z,18.23
2018-02-07T17:27:33.255Z,18.60
2018-02-07T17:30:01.608Z,20.40
2018-02-07T17:32:29.940Z,21.90
2018-02-07T17:34:58.477Z,18.83
2018-02-07T17:37:26.830Z,20.43
2018-02-07T17:39:55.196Z,21.23
2018-02-07T17:42:23.500Z,19.10
2018-02-07T17:44:51.802Z,18.43
2018-02-07T17:47:20.124Z,18.33
2018-02-07T17:49:48.464Z,20.83
2018-02-07T17:52:17.553Z,20.10
2018-02-07T17:54:46.628Z,18.50
2018-02-07T17:57:24.982Z,17.52
2018-02-07T17:59:54.058Z,18.55
2018-02-07T18:02:22.391Z,19.98
2018-02-07T18:04:51.508Z,19.67
2018-02-07T18:07:19.830Z,22.35
2018-02-07T18:09:48.169Z,18.98
2018-02-07T18:12:17.236Z,20.30
2018-02-07T18:14:45.569Z,20.83
2018-02-07T18:17:14.640Z,21.95
2018-02-07T18:19:42.938Z,21.67
2018-02-07T18:22:11.268Z,18.12
2018-02-07T18:24:40.336Z,23.12
2018-02-07T18:27:08.753Z,20.48
2018-02-07T18:29:37.055Z,19.02
2018-02-07T18:32:06.152Z,20.15
2018-02-07T18:34:35.231Z,19.70
2018-02-07T18:37:03.571Z,19.87
2018-02-07T18:39:31.874Z,21.50
2018-02-07T18:42:00.178Z,19.50
2018-02-07T18:44:28.530Z,22.45
2018-02-07T18:46:56.852Z,21.05
2018-02-07T18:49:26.345Z,20.90
2018-02-07T18:51:54.719Z,21.40
2018-02-07T18:54:23.051Z,19.02
2018-02-07T18:56:51.404Z,20.50
2018-02-07T18:59:19.708Z,22.48
2018-02-07T19:01:48.037Z,20.65
2018-02-07T19:04:16.369Z,22.90
2018-02-07T19:06:44.712Z,21.55
2018-02-07T19:09:13.020Z,21.85
2018-02-07T19:11:41.379Z,23.67
2018-02-07T19:14:10.585Z,24.33
2018-02-07T19:16:39.848Z,22.92
2018-02-07T19:19:08.452Z,24.15
2018-02-07T19:21:36.770Z,24.42
2018-02-07T19:24:05.351Z,25.88
2018-02-07T19:26:33.681Z,23.80
2018-02-07T19:29:02.757Z,26.48
2018-02-07T19:31:31.104Z,24.05
2018-02-07T19:33:59.400Z,34.35
2018-02-07T19:36:27.757Z,21.48
2018-02-07T19:38:56.824Z,19.60
2018-02-07T19:41:25.148Z,23.50
2018-02-07T19:43:53.516Z,21.05
2018-02-07T19:46:22.125Z,22.17
2018-02-07T19:48:50.453Z,23.20
2018-02-07T19:51:18.757Z,17.80
2018-02-07T19:53:47.209Z,21.50
2018-02-07T19:56:16.344Z,21.60
2018-02-07T19:58:44.880Z,21.25
2018-02-07T20:01:13.172Z,21.30
2018-02-07T20:03:41.473Z,21.87
2018-02-07T20:06:09.812Z,18.98
2018-02-07T20:08:38.145Z,20.15
2018-02-07T20:11:06.488Z,23.90
2018-02-07T20:13:34.795Z,21.67
2018-02-07T20:16:03.113Z,21.35
2018-02-07T20:18:31.502Z,21.37
2018-02-07T20:20:59.851Z,22.45
2018-02-07T20:23:28.302Z,22.20
2018-02-07T20:25:56.630Z,20.00
2018-02-07T20:28:25.707Z,21.27
2018-02-07T20:30:54.036Z,19.20
2018-02-07T20:33:22.340Z,22.87
2018-02-07T20:35:51.453Z,20.80
2018-02-07T20:38:19.791Z,20.20
2018-02-07T20:40:48.122Z,20.15
2018-02-07T20:43:16.433Z,24.17
2018-02-07T20:45:44.743Z,22.42
2018-02-07T20:48:13.089Z,20.58
2018-02-07T20:50:41.391Z,20.45
2018-02-07T20:53:09.691Z,22.58
2018-02-07T20:55:38.119Z,19.98
2018-02-07T20:58:06.429Z,20.30
2018-02-07T21:00:35.652Z,21.10
2018-02-07T21:03:04.006Z,18.95
2018-02-07T21:05:32.314Z,18.45
2018-02-07T21:08:01.412Z,20.95
2018-02-07T21:10:29.724Z,20.12
2018-02-07T21:12:58.896Z,18.98
2018-02-07T21:15:27.213Z,17.92
2018-02-07T21:17:55.597Z,20.42
2018-02-07T21:20:23.983Z,22.23
2018-02-07T21:22:53.108Z,21.55
2018-02-07T21:25:22.213Z,20.90
2018-02-07T21:27:50.585Z,20.33
2018-02-07T21:30:18.930Z,21.12
2018-02-07T21:32:47.524Z,19.17
2018-02-07T21:35:15.853Z,20.95
2018-02-07T21:37:44.171Z,21.80
2018-02-07T21:40:12.505Z,19.48
2018-02-07T21:42:40.844Z,20.00
2018-02-07T21:45:09.147Z,20.85
2018-02-07T21:47:38.256Z,20.02
2018-02-07T21:50:06.655Z,18.40
2018-02-07T21:52:35.725Z,22.02
2018-02-07T21:55:04.420Z,19.52
2018-02-07T21:57:33.550Z,16.73
2018-02-07T22:00:02.652Z,17.83
2018-02-07T22:02:30.986Z,19.23
2018-02-07T22:04:59.288Z,18.90
2018-02-07T22:07:27.584Z,20.75
2018-02-07T22:09:55.953Z,19.62
2018-02-07T22:12:25.159Z,21.92
2018-02-07T22:14:54.267Z,19.90
2018-02-07T22:17:23.350Z,19.52
2018-02-07T22:19:51.712Z,19.75
2018-02-07T22:22:20.048Z,20.58
2018-02-07T22:24:49.436Z,19.77
2018-02-07T22:27:17.760Z,19.85
2018-02-07T22:29:46.836Z,19.80
2018-02-07T22:32:15.164Z,17.95
2018-02-07T22:34:43.465Z,18.58
2018-02-07T22:37:11.864Z,19.35
2018-02-07T22:39:40.168Z,19.33
2018-02-07T22:42:08.527Z,20.55
2018-02-07T22:44:36.907Z,18.23
2018-02-07T22:47:06.019Z,19.98
2018-02-07T22:49:35.112Z,20.85
2018-02-07T22:52:03.439Z,19.15
2018-02-07T22:54:31.793Z,21.50
2018-02-07T22:57:00.094Z,18.85
2018-02-07T22:59:29.241Z,18.65
2018-02-07T23:01:58.272Z,18.52
2018-02-07T23:04:26.631Z,18.75
2018-02-07T23:06:54.946Z,20.85
2018-02-07T23:09:23.289Z,19.70
2018-02-07T23:11:52.406Z,18.10
2018-02-07T23:14:20.721Z,18.30
2018-02-07T23:16:49.119Z,18.95
2018-02-07T23:19:17.428Z,19.35
2018-02-07T23:21:45.751Z,21.05
2018-02-07T23:24:14.924Z,20.08
2018-02-07T23:26:43.513Z,17.27
2018-02-07T23:29:11.809Z,21.10
2018-02-07T23:31:40.131Z,18.12
2018-02-07T23:34:09.243Z,19.02
2018-02-07T23:36:38.307Z,20.98
2018-02-07T23:39:06.645Z,19.37
2018-02-07T23:41:35.893Z,19.37
2018-02-07T23:44:04.188Z,20.20
2018-02-07T23:46:32.520Z,21.67
2018-02-07T23:49:00.820Z,20.08
2018-02-07T23:51:29.932Z,19.37
2018-02-07T23:53:59.016Z,20.45
2018-02-07T23:56:27.390Z,20.77
2018-02-07T23:58:55.809Z,19.15
